sensor_id;sensor_type;location;lat;lon;timestamp;pressure;altitude;pressure_sealevel;temperature
21336;BMP180;69435;52.670;13.544;2023-11-18T00:00:54;101431.00;;;9.80
21336;BMP180;69435;52.670;13.544;2023-11-18T00:03:41;101445.00;;;9.70
21336;BMP180;69435;52.670;13.544;2023-11-18T00:06:27;101440.00;;;9.80
21336;BMP180;69435;52.670;13.544;2023-11-18T00:09:14;101432.00;;;9.80
21336;BMP180;69435;52.670;13.544;2023-11-18T00:12:00;101438.00;;;9.80
21336;BMP180;69435;52.670;13.544;2023-11-18T00:14:47;101447.00;;;9.80
21336;BMP180;69435;52.670;13.544;2023-11-18T00:17:33;101458.00;;;9.90
21336;BMP180;69435;52.670;13.544;2023-11-18T00:20:19;101462.00;;;9.80
21336;BMP180;69435;52.670;13.544;2023-11-18T00:23:06;101467.00;;;9.80
21336;BMP180;69435;52.670;13.544;2023-11-18T00:25:52;101471.00;;;9.80
21336;BMP180;69435;52.670;13.544;2023-11-18T00:28:39;101480.00;;;9.80
21336;BMP180;69435;52.670;13.544;2023-11-18T00:31:25;101476.00;;;9.80
21336;BMP180;69435;52.670;13.544;2023-11-18T00:34:11;101492.00;;;9.80
21336;BMP180;69435;52.670;13.544;2023-11-18T00:36:57;101475.00;;;9.70
21336;BMP180;69435;52.670;13.544;2023-11-18T00:39:43;101483.00;;;9.70
21336;BMP180;69435;52.670;13.544;2023-11-18T00:42:29;101494.00;;;9.60
21336;BMP180;69435;52.670;13.544;2023-11-18T00:45:16;101481.00;;;9.60
21336;BMP180;69435;52.670;13.544;2023-11-18T00:48:04;101491.00;;;9.70
21336;BMP180;69435;52.670;13.544;2023-11-18T00:50:51;101497.00;;;9.60
21336;BMP180;69435;52.670;13.544;2023-11-18T00:53:37;101504.00;;;9.70
21336;BMP180;69435;52.670;13.544;2023-11-18T00:56:24;101489.00;;;9.70
21336;BMP180;69435;52.670;13.544;2023-11-18T00:59:10;101495.00;;;9.70
21336;BMP180;69435;52.670;13.544;2023-11-18T01:01:56;101505.00;;;9.70
21336;BMP180;69435;52.670;13.544;2023-11-18T01:04:42;101500.00;;;9.70
21336;BMP180;69435;52.670;13.544;2023-11-18T01:07:28;101523.00;;;9.70
21336;BMP180;69435;52.670;13.544;2023-11-18T01:10:14;101527.00;;;9.70
21336;BMP180;69435;52.670;13.544;2023-11-18T01:13:00;101548.00;;;9.70
21336;BMP180;69435;52.670;13.544;2023-11-18T01:15:46;101527.00;;;9.70
21336;BMP180;69435;52.670;13.544;2023-11-18T01:18:33;101542.00;;;9.70
21336;BMP180;69435;52.670;13.544;2023-11-18T01:21:20;101526.00;;;9.70
21336;BMP180;69435;52.670;13.544;2023-11-18T01:24:08;101547.00;;;9.70
21336;BMP180;69435;52.670;13.544;2023-11-18T01:26:54;101546.00;;;9.70
21336;BMP180;69435;52.670;13.544;2023-11-18T01:29:40;101542.00;;;9.70
21336;BMP180;69435;52.670;13.544;2023-11-18T01:32:26;101543.00;;;9.70
21336;BMP180;69435;52.670;13.544;2023-11-18T01:35:14;101545.00;;;9.70
21336;BMP180;69435;52.670;13.544;2023-11-18T01:38:00;101549.00;;;9.70
21336;BMP180;69435;52.670;13.544;2023-11-18T01:40:46;101550.00;;;9.70
21336;BMP180;69435;52.670;13.544;2023-11-18T01:43:33;101529.00;;;9.60
21336;BMP180;69435;52.670;13.544;2023-11-18T01:46:19;101557.00;;;9.60
21336;BMP180;69435;52.670;13.544;2023-11-18T01:49:08;101554.00;;;9.60
21336;BMP180;69435;52.670;13.544;2023-11-18T01:51:54;101551.00;;;9.50
21336;BMP180;69435;52.670;13.544;2023-11-18T01:54:42;101556.00;;;9.50
21336;BMP180;69435;52.670;13.544;2023-11-18T01:57:30;101557.00;;;9.40
21336;BMP180;69435;52.670;13.544;2023-11-18T02:00:16;101539.00;;;9.40
21336;BMP180;69435;52.670;13.544;2023-11-18T02:03:03;101556.00;;;9.40
21336;BMP180;69435;52.670;13.544;2023-11-18T02:05:51;101549.00;;;9.30
21336;BMP180;69435;52.670;13.544;2023-11-18T02:08:37;101555.00;;;9.30
21336;BMP180;69435;52.670;13.544;2023-11-18T02:11:37;101549.00;;;9.30
21336;BMP180;69435;52.670;13.544;2023-11-18T02:14:29;101555.00;;;9.30
21336;BMP180;69435;52.670;13.544;2023-11-18T02:17:21;101566.00;;;9.30
21336;BMP180;69435;52.670;13.544;2023-11-18T02:20:12;101565.00;;;9.30
21336;BMP180;69435;52.670;13.544;2023-11-18T02:23:02;101567.00;;;9.40
21336;BMP180;69435;52.670;13.544;2023-11-18T02:25:49;101567.00;;;9.30
21336;BMP180;69435;52.670;13.544;2023-11-18T02:28:35;101588.00;;;9.40
21336;BMP180;69435;52.670;13.544;2023-11-18T02:31:33;101590.00;;;9.50
21336;BMP180;69435;52.670;13.544;2023-11-18T02:34:28;101594.00;;;9.50
21336;BMP180;69435;52.670;13.544;2023-11-18T02:37:16;101589.00;;;9.50
21336;BMP180;69435;52.670;13.544;2023-11-18T02:40:05;101591.00;;;9.60
21336;BMP180;69435;52.670;13.544;2023-11-18T02:43:01;101591.00;;;9.60
21336;BMP180;69435;52.670;13.544;2023-11-18T02:45:51;101570.00;;;9.60
21336;BMP180;69435;52.670;13.544;2023-11-18T02:48:38;101597.00;;;9.60
21336;BMP180;69435;52.670;13.544;2023-11-18T02:51:25;101596.00;;;9.60
21336;BMP180;69435;52.670;13.544;2023-11-18T02:54:12;101579.00;;;9.70
21336;BMP180;69435;52.670;13.544;2023-11-18T02:57:03;101591.00;;;9.70
21336;BMP180;69435;52.670;13.544;2023-11-18T02:59:49;101579.00;;;9.70
21336;BMP180;69435;52.670;13.544;2023-11-18T03:02:35;101577.00;;;9.70
21336;BMP180;69435;52.670;13.544;2023-11-18T03:05:21;101593.00;;;9.60
21336;BMP180;69435;52.670;13.544;2023-11-18T03:08:08;101595.00;;;9.70
21336;BMP180;69435;52.670;13.544;2023-11-18T03:10:54;101585.00;;;9.60
21336;BMP180;69435;52.670;13.544;2023-11-18T03:13:40;101596.00;;;9.70
21336;BMP180;69435;52.670;13.544;2023-11-18T03:16:26;101595.00;;;9.70
21336;BMP180;69435;52.670;13.544;2023-11-18T03:19:13;101598.00;;;9.70
21336;BMP180;69435;52.670;13.544;2023-11-18T03:22:00;101594.00;;;9.60
21336;BMP180;69435;52.670;13.544;2023-11-18T03:24:46;101584.00;;;9.60
21336;BMP180;69435;52.670;13.544;2023-11-18T03:27:32;101589.00;;;9.60
21336;BMP180;69435;52.670;13.544;2023-11-18T03:30:18;101599.00;;;9.60
21336;BMP180;69435;52.670;13.544;2023-11-18T03:33:04;101598.00;;;9.60
21336;BMP180;69435;52.670;13.544;2023-11-18T03:35:51;101597.00;;;9.70
21336;BMP180;69435;52.670;13.544;2023-11-18T03:38:37;101588.00;;;9.70
21336;BMP180;69435;52.670;13.544;2023-11-18T03:41:23;101578.00;;;9.70
21336;BMP180;69435;52.670;13.544;2023-11-18T03:44:11;101581.00;;;9.70
21336;BMP180;69435;52.670;13.544;2023-11-18T03:46:58;101606.00;;;9.70
21336;BMP180;69435;52.670;13.544;2023-11-18T03:49:44;101603.00;;;9.70
21336;BMP180;69435;52.670;13.544;2023-11-18T03:52:30;101617.00;;;9.80
21336;BMP180;69435;52.670;13.544;2023-11-18T03:55:16;101607.00;;;9.70
21336;BMP180;69435;52.670;13.544;2023-11-18T03:58:03;101628.00;;;9.80
21336;BMP180;69435;52.670;13.544;2023-11-18T04:00:49;101597.00;;;9.70
21336;BMP180;69435;52.670;13.544;2023-11-18T04:03:35;101617.00;;;9.80
21336;BMP180;69435;52.670;13.544;2023-11-18T04:06:22;101613.00;;;9.70
21336;BMP180;69435;52.670;13.544;2023-11-18T04:09:10;101615.00;;;9.80
21336;BMP180;69435;52.670;13.544;2023-11-18T04:11:56;101607.00;;;9.80
21336;BMP180;69435;52.670;13.544;2023-11-18T04:14:42;101616.00;;;9.80
21336;BMP180;69435;52.670;13.544;2023-11-18T04:17:30;101609.00;;;9.80
21336;BMP180;69435;52.670;13.544;2023-11-18T04:20:16;101575.00;;;9.80
21336;BMP180;69435;52.670;13.544;2023-11-18T04:23:03;101608.00;;;9.80
21336;BMP180;69435;52.670;13.544;2023-11-18T04:25:50;101609.00;;;9.80
21336;BMP180;69435;52.670;13.544;2023-11-18T04:28:37;101623.00;;;9.80
21336;BMP180;69435;52.670;13.544;2023-11-18T04:31:26;101609.00;;;9.80
21336;BMP180;69435;52.670;13.544;2023-11-18T04:34:13;101616.00;;;9.80
21336;BMP180;69435;52.670;13.544;2023-11-18T04:36:59;101605.00;;;9.70
21336;BMP180;69435;52.670;13.544;2023-11-18T04:39:46;101632.00;;;9.80
21336;BMP180;69435;52.670;13.544;2023-11-18T04:42:32;101628.00;;;9.70
21336;BMP180;69435;52.670;13.544;2023-11-18T04:45:21;101642.00;;;9.70
21336;BMP180;69435;52.670;13.544;2023-11-18T04:48:07;101635.00;;;9.70
21336;BMP180;69435;52.670;13.544;2023-11-18T04:50:53;101640.00;;;9.70
21336;BMP180;69435;52.670;13.544;2023-11-18T04:53:39;101596.00;;;9.70
21336;BMP180;69435;52.670;13.544;2023-11-18T04:56:25;101627.00;;;9.70
21336;BMP180;69435;52.670;13.544;2023-11-18T04:59:12;101444.00;;;9.60
21336;BMP180;69435;52.670;13.544;2023-11-18T05:01:58;101622.00;;;9.60
21336;BMP180;69435;52.670;13.544;2023-11-18T05:04:44;101642.00;;;9.60
21336;BMP180;69435;52.670;13.544;2023-11-18T05:07:30;101642.00;;;9.50
21336;BMP180;69435;52.670;13.544;2023-11-18T05:10:16;101644.00;;;9.60
21336;BMP180;69435;52.670;13.544;2023-11-18T05:13:02;101658.00;;;9.60
21336;BMP180;69435;52.670;13.544;2023-11-18T05:15:48;101656.00;;;9.60
21336;BMP180;69435;52.670;13.544;2023-11-18T05:18:36;101600.00;;;9.50
21336;BMP180;69435;52.670;13.544;2023-11-18T05:21:22;101637.00;;;9.50
21336;BMP180;69435;52.670;13.544;2023-11-18T05:24:09;101642.00;;;9.50
21336;BMP180;69435;52.670;13.544;2023-11-18T05:26:55;101633.00;;;9.50
21336;BMP180;69435;52.670;13.544;2023-11-18T05:29:41;101621.00;;;9.50
21336;BMP180;69435;52.670;13.544;2023-11-18T05:32:29;101643.00;;;9.50
21336;BMP180;69435;52.670;13.544;2023-11-18T05:35:15;101632.00;;;9.50
21336;BMP180;69435;52.670;13.544;2023-11-18T05:38:02;101651.00;;;9.50
21336;BMP180;69435;52.670;13.544;2023-11-18T05:40:50;101633.00;;;9.50
21336;BMP180;69435;52.670;13.544;2023-11-18T05:43:42;101649.00;;;9.50
21336;BMP180;69435;52.670;13.544;2023-11-18T05:46:37;101639.00;;;9.50
21336;BMP180;69435;52.670;13.544;2023-11-18T05:49:25;101652.00;;;9.50
21336;BMP180;69435;52.670;13.544;2023-11-18T05:52:11;101658.00;;;9.50
21336;BMP180;69435;52.670;13.544;2023-11-18T05:54:57;101656.00;;;9.50
21336;BMP180;69435;52.670;13.544;2023-11-18T05:57:43;101637.00;;;9.50
21336;BMP180;69435;52.670;13.544;2023-11-18T06:00:30;101635.00;;;9.50
21336;BMP180;69435;52.670;13.544;2023-11-18T06:03:16;101642.00;;;9.50
21336;BMP180;69435;52.670;13.544;2023-11-18T06:06:08;101663.00;;;9.50
21336;BMP180;69435;52.670;13.544;2023-11-18T06:08:54;101663.00;;;9.50
21336;BMP180;69435;52.670;13.544;2023-11-18T06:11:40;101669.00;;;9.50
21336;BMP180;69435;52.670;13.544;2023-11-18T06:14:27;101632.00;;;9.50
21336;BMP180;69435;52.670;13.544;2023-11-18T06:17:13;101668.00;;;9.60
21336;BMP180;69435;52.670;13.544;2023-11-18T06:19:59;101657.00;;;9.60
21336;BMP180;69435;52.670;13.544;2023-11-18T06:22:45;101641.00;;;9.70
21336;BMP180;69435;52.670;13.544;2023-11-18T06:25:31;101643.00;;;9.70
21336;BMP180;69435;52.670;13.544;2023-11-18T06:28:17;101677.00;;;9.70
21336;BMP180;69435;52.670;13.544;2023-11-18T06:31:04;101663.00;;;9.70
21336;BMP180;69435;52.670;13.544;2023-11-18T06:33:50;101665.00;;;9.70
21336;BMP180;69435;52.670;13.544;2023-11-18T06:36:36;101672.00;;;9.60
21336;BMP180;69435;52.670;13.544;2023-11-18T06:39:23;101659.00;;;9.60
21336;BMP180;69435;52.670;13.544;2023-11-18T06:42:15;101681.00;;;9.50
21336;BMP180;69435;52.670;13.544;2023-11-18T06:45:01;101675.00;;;9.50
21336;BMP180;69435;52.670;13.544;2023-11-18T06:47:47;101671.00;;;9.50
21336;BMP180;69435;52.670;13.544;2023-11-18T06:50:35;101691.00;;;9.40
21336;BMP180;69435;52.670;13.544;2023-11-18T06:53:21;101672.00;;;9.40
21336;BMP180;69435;52.670;13.544;2023-11-18T06:56:07;101660.00;;;9.40
21336;BMP180;69435;52.670;13.544;2023-11-18T06:58:54;101710.00;;;9.40
21336;BMP180;69435;52.670;13.544;2023-11-18T07:01:41;101714.00;;;9.40
21336;BMP180;69435;52.670;13.544;2023-11-18T07:04:31;101701.00;;;9.40
21336;BMP180;69435;52.670;13.544;2023-11-18T07:07:17;101658.00;;;9.30
21336;BMP180;69435;52.670;13.544;2023-11-18T07:10:04;101700.00;;;9.30
21336;BMP180;69435;52.670;13.544;2023-11-18T07:12:51;101701.00;;;9.30
21336;BMP180;69435;52.670;13.544;2023-11-18T07:15:37;101685.00;;;9.30
21336;BMP180;69435;52.670;13.544;2023-11-18T07:18:24;101703.00;;;9.20
21336;BMP180;69435;52.670;13.544;2023-11-18T07:21:10;101714.00;;;9.20
21336;BMP180;69435;52.670;13.544;2023-11-18T07:23:56;101717.00;;;9.20
21336;BMP180;69435;52.670;13.544;2023-11-18T07:26:42;101732.00;;;9.20
21336;BMP180;69435;52.670;13.544;2023-11-18T07:29:30;101716.00;;;9.20
21336;BMP180;69435;52.670;13.544;2023-11-18T07:32:16;101737.00;;;9.20
21336;BMP180;69435;52.670;13.544;2023-11-18T07:35:05;101737.00;;;9.20
21336;BMP180;69435;52.670;13.544;2023-11-18T07:37:55;101749.00;;;9.20
21336;BMP180;69435;52.670;13.544;2023-11-18T07:40:41;101749.00;;;9.20
21336;BMP180;69435;52.670;13.544;2023-11-18T07:43:37;101744.00;;;9.20
21336;BMP180;69435;52.670;13.544;2023-11-18T07:46:23;101755.00;;;9.20
21336;BMP180;69435;52.670;13.544;2023-11-18T07:49:09;101742.00;;;9.10
21336;BMP180;69435;52.670;13.544;2023-11-18T07:51:55;101740.00;;;9.10
21336;BMP180;69435;52.670;13.544;2023-11-18T07:54:42;101767.00;;;9.10
21336;BMP180;69435;52.670;13.544;2023-11-18T07:57:28;101737.00;;;9.10
21336;BMP180;69435;52.670;13.544;2023-11-18T08:00:15;101723.00;;;9.10
21336;BMP180;69435;52.670;13.544;2023-11-18T08:03:01;101758.00;;;9.10
21336;BMP180;69435;52.670;13.544;2023-11-18T08:05:47;101779.00;;;9.00
21336;BMP180;69435;52.670;13.544;2023-11-18T08:08:35;101762.00;;;9.20
21336;BMP180;69435;52.670;13.544;2023-11-18T08:11:23;101761.00;;;9.20
21336;BMP180;69435;52.670;13.544;2023-11-18T08:14:10;101772.00;;;9.30
21336;BMP180;69435;52.670;13.544;2023-11-18T08:16:56;101738.00;;;9.40
21336;BMP180;69435;52.670;13.544;2023-11-18T08:19:44;101782.00;;;9.50
21336;BMP180;69435;52.670;13.544;2023-11-18T08:22:32;101787.00;;;9.60
21336;BMP180;69435;52.670;13.544;2023-11-18T08:25:18;101764.00;;;9.70
21336;BMP180;69435;52.670;13.544;2023-11-18T08:28:05;101763.00;;;9.90
21336;BMP180;69435;52.670;13.544;2023-11-18T08:30:52;101770.00;;;10.00
21336;BMP180;69435;52.670;13.544;2023-11-18T08:33:38;101783.00;;;10.10
21336;BMP180;69435;52.670;13.544;2023-11-18T08:36:24;101751.00;;;10.10
21336;BMP180;69435;52.670;13.544;2023-11-18T08:39:12;101772.00;;;10.10
21336;BMP180;69435;52.670;13.544;2023-11-18T08:42:02;101762.00;;;10.10
21336;BMP180;69435;52.670;13.544;2023-11-18T08:44:48;101770.00;;;10.10
21336;BMP180;69435;52.670;13.544;2023-11-18T08:47:34;101786.00;;;10.10
21336;BMP180;69435;52.670;13.544;2023-11-18T08:50:21;101767.00;;;10.00
21336;BMP180;69435;52.670;13.544;2023-11-18T08:53:09;101781.00;;;10.20
21336;BMP180;69435;52.670;13.544;2023-11-18T08:55:55;101777.00;;;10.30
21336;BMP180;69435;52.670;13.544;2023-11-18T08:58:45;101777.00;;;10.40
21336;BMP180;69435;52.670;13.544;2023-11-18T09:01:31;101763.00;;;10.40
21336;BMP180;69435;52.670;13.544;2023-11-18T09:04:17;101734.00;;;10.60
21336;BMP180;69435;52.670;13.544;2023-11-18T09:07:05;101781.00;;;10.60
21336;BMP180;69435;52.670;13.544;2023-11-18T09:09:52;101779.00;;;10.70
21336;BMP180;69435;52.670;13.544;2023-11-18T09:12:38;101794.00;;;10.70
21336;BMP180;69435;52.670;13.544;2023-11-18T09:15:27;101794.00;;;10.80
21336;BMP180;69435;52.670;13.544;2023-11-18T09:18:16;101789.00;;;10.80
21336;BMP180;69435;52.670;13.544;2023-11-18T09:21:05;101796.00;;;10.90
21336;BMP180;69435;52.670;13.544;2023-11-18T09:23:52;101801.00;;;10.90
21336;BMP180;69435;52.670;13.544;2023-11-18T09:26:38;101809.00;;;10.90
21336;BMP180;69435;52.670;13.544;2023-11-18T09:29:25;101801.00;;;11.00
21336;BMP180;69435;52.670;13.544;2023-11-18T09:32:12;101806.00;;;11.10
21336;BMP180;69435;52.670;13.544;2023-11-18T09:34:58;101804.00;;;11.20
21336;BMP180;69435;52.670;13.544;2023-11-18T09:37:44;101800.00;;;11.20
21336;BMP180;69435;52.670;13.544;2023-11-18T09:40:35;101783.00;;;11.20
21336;BMP180;69435;52.670;13.544;2023-11-18T09:43:36;101787.00;;;11.50
21336;BMP180;69435;52.670;13.544;2023-11-18T09:46:35;101797.00;;;11.50
21336;BMP180;69435;52.670;13.544;2023-11-18T09:49:32;101791.00;;;11.50
21336;BMP180;69435;52.670;13.544;2023-11-18T09:52:26;101779.00;;;11.50
21336;BMP180;69435;52.670;13.544;2023-11-18T09:55:31;101800.00;;;11.60
21336;BMP180;69435;52.670;13.544;2023-11-18T09:58:22;101785.00;;;11.70
21336;BMP180;69435;52.670;13.544;2023-11-18T10:01:11;101801.00;;;11.80
21336;BMP180;69435;52.670;13.544;2023-11-18T10:03:59;101794.00;;;11.90
21336;BMP180;69435;52.670;13.544;2023-11-18T10:06:47;101803.00;;;11.90
21336;BMP180;69435;52.670;13.544;2023-11-18T10:09:36;101807.00;;;11.90
21336;BMP180;69435;52.670;13.544;2023-11-18T10:12:25;101806.00;;;12.00
21336;BMP180;69435;52.670;13.544;2023-11-18T10:15:18;101805.00;;;11.90
21336;BMP180;69435;52.670;13.544;2023-11-18T10:18:04;101795.00;;;11.90
21336;BMP180;69435;52.670;13.544;2023-11-18T10:20:53;101780.00;;;11.80
21336;BMP180;69435;52.670;13.544;2023-11-18T10:23:59;101799.00;;;11.80
21336;BMP180;69435;52.670;13.544;2023-11-18T10:26:55;101806.00;;;11.90
21336;BMP180;69435;52.670;13.544;2023-11-18T10:29:44;101808.00;;;11.90
21336;BMP180;69435;52.670;13.544;2023-11-18T10:32:31;101782.00;;;11.90
21336;BMP180;69435;52.670;13.544;2023-11-18T10:35:21;101809.00;;;12.00
21336;BMP180;69435;52.670;13.544;2023-11-18T10:38:07;101800.00;;;12.00
21336;BMP180;69435;52.670;13.544;2023-11-18T10:40:59;101772.00;;;12.10
21336;BMP180;69435;52.670;13.544;2023-11-18T10:43:48;101792.00;;;12.00
21336;BMP180;69435;52.670;13.544;2023-11-18T10:46:34;101787.00;;;12.00
21336;BMP180;69435;52.670;13.544;2023-11-18T10:49:21;101776.00;;;12.00
21336;BMP180;69435;52.670;13.544;2023-11-18T10:52:07;101778.00;;;12.00
21336;BMP180;69435;52.670;13.544;2023-11-18T10:54:54;101789.00;;;12.00
21336;BMP180;69435;52.670;13.544;2023-11-18T10:57:41;101800.00;;;12.00
21336;BMP180;69435;52.670;13.544;2023-11-18T11:00:27;101808.00;;;12.20
21336;BMP180;69435;52.670;13.544;2023-11-18T11:03:19;101803.00;;;12.30
21336;BMP180;69435;52.670;13.544;2023-11-18T11:06:16;101788.00;;;12.40
21336;BMP180;69435;52.670;13.544;2023-11-18T11:09:05;101794.00;;;12.40
21336;BMP180;69435;52.670;13.544;2023-11-18T11:12:10;101780.00;;;12.50
21336;BMP180;69435;52.670;13.544;2023-11-18T11:15:12;101807.00;;;12.50
21336;BMP180;69435;52.670;13.544;2023-11-18T11:18:11;101777.00;;;12.60
21336;BMP180;69435;52.670;13.544;2023-11-18T11:21:14;101799.00;;;12.80
21336;BMP180;69435;52.670;13.544;2023-11-18T11:24:06;101816.00;;;13.00
21336;BMP180;69435;52.670;13.544;2023-11-18T11:27:31;101791.00;;;13.10
21336;BMP180;69435;52.670;13.544;2023-11-18T11:30:29;101790.00;;;13.20
21336;BMP180;69435;52.670;13.544;2023-11-18T11:34:25;101775.00;;;13.10
21336;BMP180;69435;52.670;13.544;2023-11-18T11:37:12;101782.00;;;13.00
21336;BMP180;69435;52.670;13.544;2023-11-18T11:40:01;101782.00;;;13.00
21336;BMP180;69435;52.670;13.544;2023-11-18T11:42:54;101768.00;;;12.90
21336;BMP180;69435;52.670;13.544;2023-11-18T11:45:43;101766.00;;;12.80
21336;BMP180;69435;52.670;13.544;2023-11-18T11:48:33;101784.00;;;12.70
21336;BMP180;69435;52.670;13.544;2023-11-18T11:51:36;101785.00;;;12.60
21336;BMP180;69435;52.670;13.544;2023-11-18T11:54:27;101774.00;;;12.40
21336;BMP180;69435;52.670;13.544;2023-11-18T11:57:15;101761.00;;;12.40
21336;BMP180;69435;52.670;13.544;2023-11-18T12:00:03;101737.00;;;12.30
21336;BMP180;69435;52.670;13.544;2023-11-18T12:03:01;101741.00;;;12.30
21336;BMP180;69435;52.670;13.544;2023-11-18T12:05:55;101765.00;;;12.30
21336;BMP180;69435;52.670;13.544;2023-11-18T12:08:42;101728.00;;;12.30
21336;BMP180;69435;52.670;13.544;2023-11-18T12:11:36;101737.00;;;12.30
21336;BMP180;69435;52.670;13.544;2023-11-18T12:14:27;101735.00;;;12.30
21336;BMP180;69435;52.670;13.544;2023-11-18T12:17:13;101727.00;;;12.30
21336;BMP180;69435;52.670;13.544;2023-11-18T12:20:01;101725.00;;;12.30
21336;BMP180;69435;52.670;13.544;2023-11-18T12:23:06;101713.00;;;12.20
21336;BMP180;69435;52.670;13.544;2023-11-18T12:25:59;101711.00;;;12.20
21336;BMP180;69435;52.670;13.544;2023-11-18T12:28:48;101691.00;;;12.10
21336;BMP180;69435;52.670;13.544;2023-11-18T12:31:40;101716.00;;;12.10
21336;BMP180;69435;52.670;13.544;2023-11-18T12:34:52;101729.00;;;12.10
21336;BMP180;69435;52.670;13.544;2023-11-18T12:47:09;101712.00;;;11.70
21336;BMP180;69435;52.670;13.544;2023-11-18T12:50:09;101693.00;;;11.70
21336;BMP180;69435;52.670;13.544;2023-11-18T12:53:11;101711.00;;;11.60
21336;BMP180;69435;52.670;13.544;2023-11-18T12:56:00;101709.00;;;11.50
21336;BMP180;69435;52.670;13.544;2023-11-18T12:58:47;101732.00;;;11.50
21336;BMP180;69435;52.670;13.544;2023-11-18T13:01:33;101719.00;;;11.50
21336;BMP180;69435;52.670;13.544;2023-11-18T13:04:25;101710.00;;;11.50
21336;BMP180;69435;52.670;13.544;2023-11-18T13:07:13;101717.00;;;11.40
21336;BMP180;69435;52.670;13.544;2023-11-18T13:09:59;101702.00;;;11.50
21336;BMP180;69435;52.670;13.544;2023-11-18T13:12:45;101718.00;;;11.50
21336;BMP180;69435;52.670;13.544;2023-11-18T13:15:33;101696.00;;;11.60
21336;BMP180;69435;52.670;13.544;2023-11-18T13:18:20;101701.00;;;11.60
21336;BMP180;69435;52.670;13.544;2023-11-18T13:21:06;101702.00;;;11.60
21336;BMP180;69435;52.670;13.544;2023-11-18T13:23:53;101696.00;;;11.60
21336;BMP180;69435;52.670;13.544;2023-11-18T13:26:40;101654.00;;;11.60
21336;BMP180;69435;52.670;13.544;2023-11-18T13:29:26;101681.00;;;11.50
21336;BMP180;69435;52.670;13.544;2023-11-18T13:32:12;101699.00;;;11.30
21336;BMP180;69435;52.670;13.544;2023-11-18T13:35:01;101687.00;;;11.20
21336;BMP180;69435;52.670;13.544;2023-11-18T13:37:49;101709.00;;;11.10
21336;BMP180;69435;52.670;13.544;2023-11-18T13:40:46;101714.00;;;11.10
21336;BMP180;69435;52.670;13.544;2023-11-18T13:43:46;101717.00;;;11.00
21336;BMP180;69435;52.670;13.544;2023-11-18T13:46:47;101697.00;;;10.90
21336;BMP180;69435;52.670;13.544;2023-11-18T13:49:34;101718.00;;;10.90
21336;BMP180;69435;52.670;13.544;2023-11-18T13:52:21;101700.00;;;10.90
21336;BMP180;69435;52.670;13.544;2023-11-18T13:55:07;101683.00;;;10.90
21336;BMP180;69435;52.670;13.544;2023-11-18T13:57:55;101699.00;;;11.00
21336;BMP180;69435;52.670;13.544;2023-11-18T14:00:44;101697.00;;;11.00
21336;BMP180;69435;52.670;13.544;2023-11-18T14:03:32;101700.00;;;11.00
21336;BMP180;69435;52.670;13.544;2023-11-18T14:06:21;101706.00;;;11.00
21336;BMP180;69435;52.670;13.544;2023-11-18T14:09:08;101701.00;;;11.00
21336;BMP180;69435;52.670;13.544;2023-11-18T14:11:56;101700.00;;;11.00
21336;BMP180;69435;52.670;13.544;2023-11-18T14:14:42;101671.00;;;11.10
21336;BMP180;69435;52.670;13.544;2023-11-18T14:17:29;101687.00;;;11.00
21336;BMP180;69435;52.670;13.544;2023-11-18T14:20:15;101673.00;;;11.00
21336;BMP180;69435;52.670;13.544;2023-11-18T14:23:05;101685.00;;;11.00
21336;BMP180;69435;52.670;13.544;2023-11-18T14:25:51;101700.00;;;11.00
21336;BMP180;69435;52.670;13.544;2023-11-18T14:28:38;101688.00;;;10.90
21336;BMP180;69435;52.670;13.544;2023-11-18T14:31:24;101690.00;;;10.90
21336;BMP180;69435;52.670;13.544;2023-11-18T14:34:11;101691.00;;;10.80
21336;BMP180;69435;52.670;13.544;2023-11-18T14:36:57;101684.00;;;10.70
21336;BMP180;69435;52.670;13.544;2023-11-18T14:39:44;101658.00;;;10.60
21336;BMP180;69435;52.670;13.544;2023-11-18T14:42:31;101693.00;;;10.50
21336;BMP180;69435;52.670;13.544;2023-11-18T14:45:17;101655.00;;;10.40
21336;BMP180;69435;52.670;13.544;2023-11-18T14:48:03;101679.00;;;10.30
21336;BMP180;69435;52.670;13.544;2023-11-18T14:50:49;101683.00;;;10.10
21336;BMP180;69435;52.670;13.544;2023-11-18T14:53:36;101676.00;;;10.00
21336;BMP180;69435;52.670;13.544;2023-11-18T14:56:23;101671.00;;;9.90
21336;BMP180;69435;52.670;13.544;2023-11-18T14:59:09;101668.00;;;9.80
21336;BMP180;69435;52.670;13.544;2023-11-18T15:01:56;101658.00;;;9.70
21336;BMP180;69435;52.670;13.544;2023-11-18T15:04:43;101657.00;;;9.60
21336;BMP180;69435;52.670;13.544;2023-11-18T15:07:29;101667.00;;;9.50
21336;BMP180;69435;52.670;13.544;2023-11-18T15:10:21;101664.00;;;9.40
21336;BMP180;69435;52.670;13.544;2023-11-18T15:13:08;101662.00;;;9.30
21336;BMP180;69435;52.670;13.544;2023-11-18T15:16:04;101633.00;;;9.10
21336;BMP180;69435;52.670;13.544;2023-11-18T15:18:50;101622.00;;;9.00
21336;BMP180;69435;52.670;13.544;2023-11-18T15:21:38;101624.00;;;9.00
21336;BMP180;69435;52.670;13.544;2023-11-18T15:24:24;101601.00;;;8.90
21336;BMP180;69435;52.670;13.544;2023-11-18T15:27:10;101636.00;;;8.80
21336;BMP180;69435;52.670;13.544;2023-11-18T15:29:57;101638.00;;;8.70
21336;BMP180;69435;52.670;13.544;2023-11-18T15:32:46;101649.00;;;8.70
21336;BMP180;69435;52.670;13.544;2023-11-18T15:35:32;101669.00;;;8.60
21336;BMP180;69435;52.670;13.544;2023-11-18T15:38:18;101651.00;;;8.60
21336;BMP180;69435;52.670;13.544;2023-11-18T15:41:06;101649.00;;;8.60
21336;BMP180;69435;52.670;13.544;2023-11-18T15:43:52;101636.00;;;8.70
21336;BMP180;69435;52.670;13.544;2023-11-18T15:46:38;101637.00;;;8.80
21336;BMP180;69435;52.670;13.544;2023-11-18T15:49:24;101620.00;;;8.80
21336;BMP180;69435;52.670;13.544;2023-11-18T15:52:10;101602.00;;;8.80
21336;BMP180;69435;52.670;13.544;2023-11-18T15:54:58;101620.00;;;8.80
21336;BMP180;69435;52.670;13.544;2023-11-18T15:57:51;101628.00;;;8.50
21336;BMP180;69435;52.670;13.544;2023-11-18T16:00:42;101609.00;;;8.70